Time;durP1;ratioP1;P1;durP2;ratioP2;P2;SDS_P1;SDS_P2;PMS_P1;PMS_P2;Temp;Humidity;BMP_temperature;BMP_pressure;BME280_temperature;BME280_humidity;BME280_pressure;Samples;Min_cycle;Max_cycle;Signal;HPM_P1;HPM_P2
2022/01/20 00:04:16;;;;;;;19.83;2.70;;;4.70;99.90;;;;;;4990054;28;20141;-77
2022/01/20 00:23:15;;;;;;;15.25;1.85;;;5.10;99.90;;;;;;4993448;28;20453;-77
2022/01/20 00:26:05;;;;;;;15.38;2.53;;;5.20;99.90;;;;;;5013000;28;20049;-77
2022/01/20 00:28:46;;;;;;;13.98;1.58;;;5.20;99.90;;;;;;4994314;28;20053;-78
2022/01/20 00:34:10;;;;;;;10.30;1.52;;;5.50;99.90;;;;;;5014548;28;20200;-78
2022/01/20 00:39:03;;;;;;;9.25;1.33;;;4.60;99.90;;;;;;5017008;28;20103;-78
2022/01/20 00:41:29;;;;;;;9.63;1.60;;;4.60;99.90;;;;;;5013162;28;20137;-78
2022/01/20 00:43:55;;;;;;;11.75;1.48;;;4.90;99.90;;;;;;4999766;28;20167;-79
2022/01/20 00:46:20;;;;;;;9.05;1.42;;;4.50;99.90;;;;;;4994424;28;20042;-78
2022/01/20 00:48:46;;;;;;;12.18;1.23;;;4.50;99.90;;;;;;4993724;28;20093;-78
2022/01/20 00:51:12;;;;;;;8.07;1.60;;;4.50;99.90;;;;;;4996197;28;20464;-78
2022/01/20 00:53:43;;;;;;;12.73;1.10;;;4.40;99.90;;;;;;4977927;28;20080;-77
2022/01/20 00:56:10;;;;;;;;;;;4.30;99.90;;;;;;5011769;28;20129;-78
2022/01/20 00:58:36;;;;;;;9.85;0.90;;;4.40;99.90;;;;;;5011294;28;19921;-78
2022/01/20 01:01:02;;;;;;;8.02;1.10;;;5.00;99.90;;;;;;5000171;28;20045;-78
2022/01/20 01:03:28;;;;;;;8.63;1.50;;;4.20;99.90;;;;;;4994666;28;20513;-78
2022/01/20 01:06:10;;;;;;;12.27;1.27;;;4.40;99.90;;;;;;4981605;28;20081;-78
2022/01/20 01:08:36;;;;;;;7.32;0.82;;;5.30;99.90;;;;;;4968237;28;21728;-78
2022/01/20 01:11:02;;;;;;;11.77;1.30;;;4.70;99.90;;;;;;5016792;28;20045;-79
2022/01/20 01:13:29;;;;;;;7.53;0.90;;;4.50;99.90;;;;;;5010491;28;20104;-79
2022/01/20 01:15:55;;;;;;;11.23;1.67;;;4.50;99.90;;;;;;4987242;28;20049;-79
2022/01/20 01:23:44;;;;;;;8.13;0.85;;;4.90;99.90;;;;;;5010781;28;20132;-78
2022/01/20 01:26:13;;;;;;;9.27;1.67;;;5.50;99.90;;;;;;4997945;28;20056;-78
2022/01/20 01:28:40;;;;;;;9.93;0.90;;;4.60;99.90;;;;;;5009620;28;20042;-78
2022/01/20 01:33:52;;;;;;;8.90;1.00;;;4.60;99.90;;;;;;5020718;28;20053;-77
2022/01/20 01:36:22;;;;;;;8.48;1.10;;;4.60;99.90;;;;;;4995950;28;20046;-77
2022/01/20 01:38:49;;;;;;;17.10;1.40;;;4.50;99.90;;;;;;4981537;28;20049;-77
2022/01/20 01:41:26;;;;;;;9.85;1.25;;;4.40;99.90;;;;;;4997980;28;20041;-76
2022/01/20 01:43:53;;;;;;;8.32;1.05;;;4.30;99.90;;;;;;4993663;28;20068;-77
2022/01/20 01:46:19;;;;;;;9.50;1.15;;;4.90;99.90;;;;;;4994067;28;20050;-76
2022/01/20 01:48:45;;;;;;;7.60;0.90;;;4.20;99.90;;;;;;4993747;28;20057;-77
2022/01/20 01:51:12;;;;;;;12.18;1.20;;;4.10;99.90;;;;;;4997963;28;20199;-76
2022/01/20 01:53:39;;;;;;;13.40;1.10;;;4.10;99.90;;;;;;4996021;28;20042;-76
2022/01/20 01:56:06;;;;;;;9.68;1.40;;;4.10;99.90;;;;;;4993807;28;20058;-76
2022/01/20 01:58:32;;;;;;;9.95;0.90;;;4.10;99.90;;;;;;4989766;28;20045;-77
2022/01/20 02:00:58;;;;;;;4.20;0.98;;;4.60;99.90;;;;;;5000103;28;20053;-78
2022/01/20 02:03:24;;;;;;;7.72;1.10;;;4.30;99.90;;;;;;4997151;28;20048;-78
2022/01/20 02:19:13;;;;;;;10.57;1.17;;;4.80;99.90;;;;;;5012208;28;20049;-77
2022/01/20 02:21:49;;;;;;;9.95;1.60;;;4.80;99.90;;;;;;5014011;28;20124;-78
2022/01/20 02:24:15;;;;;;;12.05;1.38;;;4.90;99.90;;;;;;4996647;28;20125;-77
2022/01/20 02:26:41;;;;;;;9.30;1.00;;;4.90;99.90;;;;;;5014130;28;20065;-77
2022/01/20 02:29:07;;;;;;;10.38;1.15;;;5.70;99.90;;;;;;5013314;28;20495;-77
2022/01/20 02:31:33;;;;;;;7.82;0.90;;;4.90;99.90;;;;;;5006789;28;20128;-78
2022/01/20 02:33:58;;;;;;;9.93;1.00;;;4.80;99.90;;;;;;5002438;28;20460;-78
2022/01/20 02:36:25;;;;;;;9.73;1.10;;;4.70;99.90;;;;;;5018932;28;20108;-78
2022/01/20 02:39:07;;;;;;;7.75;1.20;;;4.90;99.90;;;;;;5001001;28;20058;-79
2022/01/20 02:47:12;;;;;;;10.60;1.67;;;4.90;99.90;;;;;;5012833;28;20057;-78
2022/01/20 02:49:38;;;;;;;9.93;1.50;;;4.60;99.90;;;;;;4997379;28;20054;-78
2022/01/20 02:52:04;;;;;;;12.65;1.63;;;4.60;99.90;;;;;;5015155;28;20049;-77
2022/01/20 02:54:29;;;;;;;11.10;1.73;;;4.60;99.90;;;;;;5003468;28;20491;-80
2022/01/20 02:56:55;;;;;;;15.40;1.70;;;4.60;99.90;;;;;;5003595;28;20059;-78
2022/01/20 02:59:21;;;;;;;15.27;1.90;;;4.30;99.90;;;;;;4997334;28;20046;-79
2022/01/20 03:01:47;;;;;;;15.05;1.88;;;4.60;99.90;;;;;;5001353;28;20483;-78
2022/01/20 03:04:12;;;;;;;15.30;1.88;;;4.40;99.90;;;;;;5002157;28;20133;-79
2022/01/20 03:06:38;;;;;;;17.33;2.05;;;5.00;99.90;;;;;;5019695;28;20041;-78
2022/01/20 03:09:04;;;;;;;14.98;1.90;;;4.20;99.90;;;;;;4997497;28;20051;-78
2022/01/20 03:11:30;;;;;;;13.90;1.77;;;4.70;99.90;;;;;;4984708;28;20068;-79
2022/01/20 03:13:56;;;;;;;12.05;1.63;;;4.40;99.90;;;;;;5023965;28;20517;-80
2022/01/20 03:16:21;;;;;;;14.50;2.15;;;4.70;99.90;;;;;;5020420;28;20068;-82
2022/01/20 03:18:47;;;;;;;18.20;2.50;;;4.30;99.90;;;;;;5013058;28;20397;-81
2022/01/20 03:21:13;;;;;;;22.98;2.83;;;3.80;99.90;;;;;;5004541;28;21318;-80
2022/01/20 03:23:39;;;;;;;19.55;2.88;;;3.80;99.90;;;;;;5026352;28;20107;-80
2022/01/20 03:26:05;;;;;;;25.90;3.65;;;3.80;99.90;;;;;;5013013;28;20042;-79
2022/01/20 03:28:30;;;;;;;19.25;3.13;;;4.50;99.90;;;;;;5013749;28;20047;-79
2022/01/20 03:30:56;;;;;;;20.98;3.35;;;3.80;99.90;;;;;;4991803;28;20054;-78
2022/01/20 03:33:22;;;;;;;26.40;3.85;;;3.80;99.90;;;;;;4996021;28;20053;-78
2022/01/20 03:35:48;;;;;;;17.45;2.65;;;3.90;99.90;;;;;;5009021;28;20046;-78
2022/01/20 03:38:14;;;;;;;21.35;3.17;;;3.90;99.90;;;;;;5001255;28;20042;-78
2022/01/20 03:40:40;;;;;;;17.35;2.50;;;3.90;99.90;;;;;;4995909;28;20046;-78
2022/01/20 03:43:05;;;;;;;15.43;3.10;;;4.60;99.90;;;;;;5010412;28;20065;-78
2022/01/20 03:45:31;;;;;;;24.73;3.45;;;4.10;99.90;;;;;;5009533;28;20049;-78
2022/01/20 03:48:06;;;;;;;24.17;2.58;;;5.10;99.90;;;;;;5012161;28;20491;-77
2022/01/20 03:53:21;;;;;;;16.08;1.70;;;4.60;99.90;;;;;;4997227;28;20068;-77
2022/01/20 03:55:47;;;;;;;11.20;1.38;;;4.10;99.90;;;;;;4995925;28;20553;-78
2022/01/20 03:58:13;;;;;;;13.52;1.85;;;4.10;99.90;;;;;;5011563;28;20102;-78
2022/01/20 04:00:39;;;;;;;16.67;1.63;;;4.10;99.90;;;;;;4995427;28;20483;-77
2022/01/20 04:03:05;;;;;;;8.25;1.60;;;5.00;99.90;;;;;;5016567;28;20475;-77
2022/01/20 04:05:30;;;;;;;13.48;1.80;;;4.90;99.90;;;;;;4979490;28;20037;-78
2022/01/20 04:07:56;;;;;;;16.75;1.83;;;4.00;99.90;;;;;;4978026;28;20046;-77
2022/01/20 04:10:22;;;;;;;10.57;1.65;;;4.50;99.90;;;;;;4994824;28;20045;-77
2022/01/20 04:12:47;;;;;;;8.48;1.35;;;3.90;99.90;;;;;;5011564;28;20053;-77
2022/01/20 04:15:16;;;;;;;13.07;1.60;;;4.60;99.90;;;;;;5011871;28;20049;-77
2022/01/20 04:17:44;;;;;;;11.07;1.42;;;4.50;99.90;;;;;;4994888;28;20125;-77
2022/01/20 04:20:10;;;;;;;5.10;1.00;;;4.00;99.90;;;;;;4994487;28;20145;-77
2022/01/20 04:22:37;;;;;;;11.73;2.05;;;4.00;99.90;;;;;;5011139;28;20050;-77
2022/01/20 04:25:04;;;;;;;11.02;1.70;;;4.00;99.90;;;;;;4995155;28;20053;-77
2022/01/20 04:27:30;;;;;;;10.02;1.70;;;3.90;99.90;;;;;;4995197;28;20049;-77
2022/01/20 04:29:56;;;;;;;13.30;3.25;;;4.90;99.90;;;;;;5010378;28;20061;-77
2022/01/20 04:32:23;;;;;;;14.45;2.38;;;3.70;99.90;;;;;;4995120;28;20052;-77
2022/01/20 04:34:49;;;;;;;12.65;2.03;;;3.70;99.90;;;;;;4994589;28;20100;-77
2022/01/20 04:37:15;;;;;;;12.73;2.10;;;3.70;99.90;;;;;;5010612;28;20050;-77
2022/01/20 04:39:46;;;;;;;11.32;1.85;;;3.70;99.90;;;;;;4994303;28;20049;-77
2022/01/20 04:42:29;;;;;;;11.30;1.83;;;4.30;99.90;;;;;;4992797;28;20049;-77
2022/01/20 04:45:00;;;;;;;12.38;2.13;;;3.70;99.90;;;;;;4993413;28;20396;-77
2022/01/20 04:47:41;;;;;;;18.15;3.53;;;4.40;99.90;;;;;;4993100;28;20561;-77
2022/01/20 04:58:21;;;;;;;14.27;1.98;;;3.80;99.90;;;;;;4992932;28;20645;-78
2022/01/20 05:00:46;;;;;;;17.80;2.28;;;3.70;99.90;;;;;;5008704;28;20092;-77
2022/01/20 05:03:12;;;;;;;17.10;2.85;;;3.60;99.90;;;;;;4981981;28;20081;-78
2022/01/20 05:05:38;;;;;;;15.00;2.55;;;3.50;99.90;;;;;;5009623;28;20069;-78
2022/01/20 05:08:04;;;;;;;18.17;2.40;;;3.40;99.90;;;;;;4992863;28;20050;-77
2022/01/20 05:10:32;;;;;;;16.98;2.20;;;3.30;99.90;;;;;;4992073;28;20433;-77
2022/01/20 05:15:25;;;;;;;21.42;2.78;;;4.20;99.90;;;;;;4976608;28;20156;-77
2022/01/20 05:17:52;;;;;;;14.32;2.22;;;3.20;99.90;;;;;;4992826;28;20058;-77
2022/01/20 05:20:18;;;;;;;15.18;2.10;;;3.30;99.90;;;;;;5002689;28;20072;-78
2022/01/20 05:22:44;;;;;;;15.32;2.30;;;3.30;99.90;;;;;;4994569;28;20057;-78
2022/01/20 05:25:10;;;;;;;17.77;2.30;;;3.20;99.90;;;;;;4993955;28;20060;-78
2022/01/20 05:27:36;;;;;;;10.10;1.83;;;3.10;99.90;;;;;;5010608;28;20407;-77
2022/01/20 05:30:02;;;;;;;14.35;2.00;;;3.10;99.90;;;;;;5009368;28;20053;-78
2022/01/20 05:32:28;;;;;;;13.27;1.92;;;3.00;99.90;;;;;;4978312;28;20045;-77
2022/01/20 05:34:54;;;;;;;13.00;1.88;;;3.70;99.90;;;;;;4993702;28;20052;-78
2022/01/20 05:37:19;;;;;;;16.45;2.30;;;3.00;99.90;;;;;;4993836;28;20133;-77
2022/01/20 05:39:45;;;;;;;19.83;2.58;;;3.80;99.90;;;;;;4961480;28;20089;-78
2022/01/20 05:42:11;;;;;;;15.68;1.90;;;3.00;99.90;;;;;;5009841;28;20038;-79
2022/01/20 05:44:37;;;;;;;17.95;2.40;;;4.00;99.90;;;;;;4993698;28;20096;-80
2022/01/20 05:47:09;;;;;;;17.73;2.00;;;3.70;99.90;;;;;;4979692;28;20107;-80
2022/01/20 05:49:35;;;;;;;14.30;2.35;;;3.00;99.90;;;;;;4998531;28;20072;-79
2022/01/20 05:52:01;;;;;;;11.23;1.40;;;3.90;99.90;;;;;;5013914;28;20530;-79
2022/01/20 05:54:27;;;;;;;8.60;1.42;;;3.00;99.90;;;;;;4998347;28;20426;-79
2022/01/20 05:56:52;;;;;;;11.63;1.75;;;3.00;99.90;;;;;;4997703;28;20042;-79
2022/01/20 05:59:18;;;;;;;8.57;1.42;;;3.20;99.90;;;;;;4981675;28;20077;-79
2022/01/20 06:01:52;;;;;;;9.10;1.30;;;3.10;99.90;;;;;;4997135;28;20137;-79
2022/01/20 06:04:17;;;;;;;14.85;1.33;;;2.80;99.90;;;;;;4983575;28;20049;-78
2022/01/20 06:06:44;;;;;;;6.05;1.58;;;2.90;99.90;;;;;;5013712;28;20038;-79
2022/01/20 06:09:10;;;;;;;11.27;1.50;;;3.80;99.90;;;;;;4981503;28;20133;-78
2022/01/20 06:11:36;;;;;;;11.88;1.85;;;2.70;99.90;;;;;;4997228;28;20136;-78
2022/01/20 06:14:03;;;;;;;7.47;1.35;;;3.60;99.90;;;;;;5013470;28;20046;-78
2022/01/20 06:16:29;;;;;;;7.60;1.42;;;2.90;99.90;;;;;;4981283;28;20147;-79
2022/01/20 06:18:55;;;;;;;11.90;1.45;;;3.20;99.90;;;;;;5013425;28;20058;-79
2022/01/20 06:21:20;;;;;;;14.27;2.15;;;2.90;99.90;;;;;;5013435;28;20502;-78
2022/01/20 06:23:47;;;;;;;16.55;2.22;;;2.90;99.90;;;;;;5012866;28;20041;-78
2022/01/20 06:26:18;;;;;;;12.50;1.80;;;2.90;99.90;;;;;;4981250;28;20383;-78
2022/01/20 06:28:44;;;;;;;19.90;3.30;;;2.80;99.90;;;;;;4997336;28;20058;-77
2022/01/20 06:31:10;;;;;;;11.35;2.13;;;2.90;99.90;;;;;;5013118;28;20046;-77
2022/01/20 06:33:36;;;;;;;13.02;2.03;;;2.90;99.90;;;;;;4996570;28;20045;-77
2022/01/20 06:36:02;;;;;;;20.30;2.33;;;2.90;99.90;;;;;;4996929;28;20416;-77
2022/01/20 06:38:28;;;;;;;15.00;2.30;;;3.00;99.90;;;;;;4997038;28;20120;-77
2022/01/20 06:40:54;;;;;;;15.90;2.47;;;3.00;99.90;;;;;;4996493;28;20053;-77
2022/01/20 06:43:20;;;;;;;18.20;3.15;;;3.20;99.90;;;;;;4996365;28;20124;-77
2022/01/20 06:45:46;;;;;;;13.80;2.20;;;3.00;99.90;;;;;;4997034;28;20050;-77
2022/01/20 06:48:11;;;;;;;15.80;2.10;;;3.10;99.90;;;;;;4996862;28;20046;-77
2022/01/20 06:50:38;;;;;;;15.02;2.10;;;3.10;99.90;;;;;;4996341;28;20491;-77
2022/01/20 06:53:04;;;;;;;13.60;1.92;;;3.40;99.90;;;;;;4997036;28;20325;-77
2022/01/20 06:55:30;;;;;;;15.75;2.05;;;3.50;99.90;;;;;;5012273;28;20133;-77
2022/01/20 06:57:56;;;;;;;12.02;1.38;;;3.50;99.90;;;;;;4996473;28;20232;-78
2022/01/20 07:00:24;;;;;;;9.77;1.40;;;3.40;99.90;;;;;;4996403;28;20058;-78
2022/01/20 07:02:51;;;;;;;15.32;1.63;;;3.40;99.90;;;;;;5014686;28;20050;-78
2022/01/20 07:05:18;;;;;;;7.85;1.00;;;4.40;99.90;;;;;;5012300;28;20494;-78
2022/01/20 07:07:44;;;;;;;7.18;0.90;;;3.80;99.90;;;;;;4996169;28;20050;-78
2022/01/20 07:10:13;;;;;;;12.95;1.30;;;3.10;99.90;;;;;;4996179;28;20108;-79
2022/01/20 07:12:41;;;;;;;7.35;1.20;;;2.80;99.90;;;;;;5013136;28;20054;-79
2022/01/20 07:15:07;;;;;;;7.82;0.93;;;3.20;99.90;;;;;;4996726;28;20489;-79
2022/01/20 07:17:33;;;;;;;5.88;0.90;;;2.60;99.90;;;;;;5012492;28;20525;-79
2022/01/20 07:19:59;;;;;;;4.47;0.55;;;3.20;99.90;;;;;;4995882;28;20093;-79
2022/01/20 07:22:25;;;;;;;4.15;0.80;;;2.50;99.90;;;;;;4996504;28;20045;-79
2022/01/20 07:24:51;;;;;;;2.92;0.75;;;3.20;99.90;;;;;;4996223;28;20139;-79
2022/01/20 07:27:16;;;;;;;9.65;0.93;;;2.40;99.90;;;;;;4979653;28;20038;-78
2022/01/20 07:29:42;;;;;;;7.90;1.00;;;2.30;99.90;;;;;;5011837;28;20046;-78
2022/01/20 07:32:08;;;;;;;4.53;1.30;;;3.00;99.90;;;;;;5012075;28;20490;-78
2022/01/20 07:34:34;;;;;;;9.95;1.30;;;2.40;99.90;;;;;;4992625;28;20047;-78
2022/01/20 07:37:01;;;;;;;9.35;1.48;;;3.10;99.90;;;;;;5011701;28;20050;-78
2022/01/20 07:39:29;;;;;;;11.63;2.03;;;3.00;99.90;;;;;;5012275;28;20049;-78
2022/01/20 07:41:54;;;;;;;10.10;1.60;;;2.60;99.90;;;;;;4980049;28;20055;-78
2022/01/20 07:44:21;;;;;;;8.60;1.55;;;2.80;99.90;;;;;;5012031;28;20633;-78
2022/01/20 07:46:47;;;;;;;12.25;2.53;;;2.90;99.90;;;;;;4992043;28;20082;-79
2022/01/20 07:49:16;;;;;;;15.57;1.80;;;3.00;99.90;;;;;;5010357;28;20049;-80
2022/01/20 07:51:43;;;;;;;12.93;2.13;;;2.90;99.90;;;;;;5011123;28;20423;-80
2022/01/20 07:54:09;;;;;;;14.80;2.00;;;2.90;99.90;;;;;;5012281;28;20053;-80
2022/01/20 07:56:35;;;;;;;13.13;1.30;;;2.90;99.90;;;;;;4995196;28;20445;-77
2022/01/20 07:59:03;;;;;;;18.25;2.22;;;2.90;99.90;;;;;;4962038;28;20105;-77
2022/01/20 08:01:29;;;;;;;10.70;1.85;;;2.90;99.90;;;;;;4995396;28;20054;-77
2022/01/20 08:03:55;;;;;;;11.73;1.77;;;3.00;99.90;;;;;;4999005;28;20042;-77
2022/01/20 08:06:22;;;;;;;15.90;2.38;;;3.00;99.90;;;;;;5011846;28;20057;-77
2022/01/20 08:08:50;;;;;;;11.65;1.67;;;3.00;99.90;;;;;;4995373;28;20046;-77
2022/01/20 08:11:17;;;;;;;11.13;1.77;;;4.10;99.90;;;;;;5016626;28;20490;-77
2022/01/20 08:13:43;;;;;;;16.88;1.70;;;4.10;99.90;;;;;;4994708;28;20045;-77
2022/01/20 08:16:09;;;;;;;16.65;1.60;;;3.20;99.90;;;;;;5011459;28;20053;-76
2022/01/20 08:18:35;;;;;;;13.05;1.95;;;3.20;99.90;;;;;;5027482;28;20041;-77
2022/01/20 08:21:03;;;;;;;9.63;1.45;;;3.30;99.90;;;;;;5009891;28;20179;-77
2022/01/20 08:23:29;;;;;;;14.32;1.70;;;3.30;99.90;;;;;;4995097;28;20560;-76
2022/01/20 08:25:55;;;;;;;14.15;1.85;;;3.40;99.90;;;;;;5011788;28;20159;-77
2022/01/20 08:28:22;;;;;;;11.23;1.65;;;3.70;99.90;;;;;;4978777;28;20448;-76
2022/01/20 08:30:49;;;;;;;13.52;1.50;;;4.30;99.90;;;;;;5010668;28;20046;-77
2022/01/20 08:33:15;;;;;;;11.15;1.48;;;3.40;99.90;;;;;;4978506;28;20136;-76
2022/01/20 08:35:41;;;;;;;11.23;1.73;;;3.50;99.90;;;;;;4994751;28;20550;-75
2022/01/20 08:38:08;;;;;;;15.05;1.83;;;3.50;99.90;;;;;;5011250;28;20054;-75
2022/01/20 08:40:34;;;;;;;12.65;1.80;;;4.10;99.90;;;;;;4991980;28;20046;-74
2022/01/20 08:43:01;;;;;;;11.45;1.60;;;3.70;99.90;;;;;;4995285;28;20136;-74
2022/01/20 08:45:29;;;;;;;15.98;2.30;;;3.70;99.90;;;;;;5010767;28;20045;-74
2022/01/20 08:47:57;;;;;;;14.68;2.28;;;3.70;99.90;;;;;;4994859;28;20498;-74
2022/01/20 08:50:29;;;;;;;19.60;2.35;;;3.10;99.90;;;;;;4993234;28;20496;-75
2022/01/20 08:52:56;;;;;;;12.07;2.33;;;3.90;99.90;;;;;;5030439;28;20124;-75
2022/01/20 08:55:23;;;;;;;15.00;2.08;;;4.30;99.90;;;;;;5009987;28;20045;-76
2022/01/20 08:57:49;;;;;;;8.15;1.60;;;4.00;99.90;;;;;;5011284;28;20050;-75
2022/01/20 09:00:16;;;;;;;13.85;2.03;;;4.10;99.90;;;;;;5018157;28;20095;-75
2022/01/20 09:02:42;;;;;;;13.20;1.80;;;4.10;99.90;;;;;;4996824;28;20049;-76
2022/01/20 09:05:09;;;;;;;6.28;1.20;;;4.10;99.90;;;;;;5021077;28;20057;-75
2022/01/20 09:07:34;;;;;;;11.00;2.00;;;4.20;99.90;;;;;;4995463;28;20072;-75
2022/01/20 09:10:04;;;;;;;17.60;2.22;;;4.20;99.90;;;;;;5013595;28;20489;-75
2022/01/20 09:17:44;;;;;;;10.68;1.25;;;4.40;99.90;;;;;;4998542;28;20511;-76
2022/01/20 09:20:10;;;;;;;11.13;2.20;;;5.40;99.90;;;;;;5009453;28;20107;-76
2022/01/20 09:22:37;;;;;;;14.40;1.65;;;4.50;99.90;;;;;;4995498;28;20058;-76
2022/01/20 09:25:04;;;;;;;6.10;1.52;;;4.60;99.90;;;;;;5009322;28;20058;-76
2022/01/20 09:27:30;;;;;;;6.72;1.90;;;4.60;99.90;;;;;;4998532;28;20057;-76
2022/01/20 09:29:56;;;;;;;7.13;1.27;;;4.70;99.90;;;;;;5018143;28;20049;-76
2022/01/20 09:32:24;;;;;;;13.15;1.40;;;4.70;99.90;;;;;;4997368;28;20052;-76
2022/01/20 09:34:49;;;;;;;10.95;1.58;;;4.80;99.90;;;;;;4993515;28;20050;-76
2022/01/20 09:37:15;;;;;;;11.77;1.63;;;5.20;99.90;;;;;;4964301;28;20680;-76
2022/01/20 09:39:41;;;;;;;9.50;1.80;;;5.00;99.90;;;;;;5008424;28;20204;-76
2022/01/20 09:42:09;;;;;;;12.98;1.95;;;5.10;99.90;;;;;;5009643;28;20053;-76
2022/01/20 09:44:34;;;;;;;11.77;1.20;;;5.30;99.90;;;;;;5009737;28;20095;-77
2022/01/20 09:47:01;;;;;;;11.32;1.73;;;5.30;99.90;;;;;;4993707;28;20049;-76
2022/01/20 09:49:27;;;;;;;14.23;1.67;;;5.20;99.90;;;;;;4994023;28;20132;-75
2022/01/20 09:51:53;;;;;;;15.73;2.30;;;5.10;99.90;;;;;;5018757;28;20163;-75
2022/01/20 09:54:19;;;;;;;14.60;1.90;;;5.20;99.90;;;;;;5020360;28;20038;-74
2022/01/20 09:56:44;;;;;;;12.35;1.85;;;5.00;99.90;;;;;;5010291;28;20084;-77
2022/01/20 09:59:12;;;;;;;12.07;1.60;;;5.10;99.90;;;;;;4977651;28;20049;-80
2022/01/20 10:01:50;;;;;;;13.07;1.70;;;4.70;99.90;;;;;;5010640;28;20101;-78
2022/01/20 10:04:31;;;;;;;8.25;1.73;;;4.70;99.90;;;;;;5010526;28;20076;-78
2022/01/20 10:07:02;;;;;;;9.98;1.83;;;4.60;99.90;;;;;;5009959;28;20057;-79
2022/01/20 10:09:34;;;;;;;7.68;1.50;;;4.70;99.90;;;;;;5009953;28;20099;-79
2022/01/20 10:12:00;;;;;;;10.65;1.02;;;5.30;99.90;;;;;;5010586;28;20498;-79
2022/01/20 10:14:26;;;;;;;8.20;1.98;;;5.00;99.90;;;;;;5009952;28;20054;-79
2022/01/20 10:16:52;;;;;;;11.32;1.88;;;5.20;99.90;;;;;;5010005;28;20046;-79
2022/01/20 10:19:27;;;;;;;8.05;1.38;;;5.30;99.90;;;;;;5009459;28;20061;-79
2022/01/20 10:21:53;;;;;;;7.13;1.30;;;5.40;99.90;;;;;;4994042;28;20046;-79
2022/01/20 10:24:19;;;;;;;11.93;1.40;;;5.60;99.90;;;;;;4993766;28;20505;-79
2022/01/20 10:26:49;;;;;;;10.50;1.50;;;5.50;99.90;;;;;;5009748;28;20038;-79
2022/01/20 10:29:16;;;;;;;13.15;1.58;;;5.60;99.90;;;;;;5009180;28;20228;-78
2022/01/20 10:31:51;;;;;;;9.65;1.58;;;5.70;99.90;;;;;;5010097;28;20107;-79
2022/01/20 10:34:28;;;;;;;7.68;1.33;;;5.80;99.90;;;;;;4997275;28;20045;-75
2022/01/20 10:36:55;;;;;;;11.63;1.98;;;5.90;99.90;;;;;;5011376;28;20049;-79
2022/01/20 10:39:28;;;;;;;8.10;1.92;;;6.00;99.90;;;;;;5012405;28;20050;-79
2022/01/20 10:42:06;;;;;;;12.57;1.83;;;6.00;99.90;;;;;;5013126;28;20500;-79
2022/01/20 10:44:53;;;;;;;11.10;1.75;;;5.70;99.90;;;;;;4994132;28;20047;-79
2022/01/20 10:47:25;;;;;;;9.98;1.27;;;5.30;99.90;;;;;;5010536;28;20046;-78
2022/01/20 10:49:51;;;;;;;11.60;1.48;;;5.10;99.90;;;;;;5005228;28;20050;-77
2022/01/20 10:52:23;;;;;;;12.43;1.40;;;5.00;99.90;;;;;;4996053;28;20088;-73
2022/01/20 10:54:54;;;;;;;15.00;1.70;;;5.00;99.90;;;;;;4997118;28;20050;-72
2022/01/20 10:57:31;;;;;;;9.40;1.60;;;4.90;99.90;;;;;;5013428;28;20078;-80
2022/01/20 11:00:06;;;;;;;15.38;3.03;;;5.10;99.90;;;;;;4994445;28;20411;-72
2022/01/20 11:02:33;;;;;;;12.45;1.75;;;5.40;99.90;;;;;;5014707;28;20093;-72
2022/01/20 11:04:59;;;;;;;8.90;1.65;;;5.80;99.90;;;;;;5001458;28;20069;-72
2022/01/20 11:07:27;;;;;;;4.68;1.05;;;5.70;99.90;;;;;;5012197;28;20046;-72
2022/01/20 11:10:00;;;;;;;5.50;0.80;;;5.50;99.90;;;;;;5011167;28;20041;-72
2022/01/20 11:12:27;;;;;;;5.38;0.93;;;5.50;99.90;;;;;;4993822;28;20058;-72
2022/01/20 11:14:55;;;;;;;4.38;0.90;;;5.60;99.90;;;;;;5002529;28;20056;-72
2022/01/20 11:17:31;;;;;;;6.55;0.95;;;5.90;99.90;;;;;;5005798;28;20045;-71
2022/01/20 11:20:10;;;;;;;3.85;1.25;;;5.70;99.90;;;;;;5012961;28;20050;-72
2022/01/20 11:22:37;;;;;;;10.38;1.17;;;5.80;99.90;;;;;;4996476;28;20124;-72
2022/01/20 11:25:09;;;;;;;7.97;1.15;;;5.80;99.90;;;;;;5011314;28;20467;-72
2022/01/20 11:27:38;;;;;;;9.23;1.40;;;5.80;99.90;;;;;;5012550;28;20089;-72
2022/01/20 11:30:20;;;;;;;10.70;1.58;;;5.90;99.90;;;;;;5013274;28;20042;-72
2022/01/20 11:33:04;;;;;;;11.98;1.50;;;6.00;99.90;;;;;;4995227;28;20054;-72
2022/01/20 11:35:36;;;;;;;6.53;1.10;;;6.20;99.90;;;;;;4993992;28;20491;-71
2022/01/20 11:38:01;;;;;;;7.63;1.65;;;6.30;99.90;;;;;;5011013;28;20056;-72
2022/01/20 11:40:27;;;;;;;15.60;2.10;;;6.40;99.90;;;;;;4995536;28;20054;-73
2022/01/20 11:43:11;;;;;;;10.25;1.70;;;7.20;99.90;;;;;;4996084;28;20390;-70
2022/01/20 11:45:47;;;;;;;6.80;1.10;;;6.70;99.90;;;;;;5011836;28;20052;-70
2022/01/20 11:48:20;;;;;;;4.03;0.90;;;6.10;99.90;;;;;;5011000;28;20430;-72
2022/01/20 11:51:00;;;;;;;4.00;0.82;;;5.60;99.90;;;;;;4993614;28;20515;-71
2022/01/20 11:53:26;;;;;;;8.85;1.10;;;5.30;99.90;;;;;;5012057;28;20088;-71
2022/01/20 11:55:54;;;;;;;5.93;1.10;;;5.70;99.90;;;;;;4995173;28;20078;-71
2022/01/20 11:58:25;;;;;;;5.95;1.10;;;6.10;99.90;;;;;;5011115;28;20371;-72
2022/01/20 12:00:59;;;;;;;9.82;1.50;;;6.60;99.90;;;;;;4995254;28;20054;-71
2022/01/20 12:03:24;;;;;;;11.50;1.52;;;7.10;99.90;;;;;;5024490;28;20050;-71
2022/01/20 12:06:01;;;;;;;9.32;1.73;;;7.20;99.90;;;;;;5027703;28;20806;-71
2022/01/20 12:08:27;;;;;;;13.30;1.90;;;7.30;99.90;;;;;;5011017;28;20120;-71
2022/01/20 12:11:04;;;;;;;13.93;1.60;;;8.20;99.90;;;;;;4994893;28;20057;-72
2022/01/20 12:13:31;;;;;;;12.15;1.85;;;7.60;99.90;;;;;;4996033;28;20124;-74
2022/01/20 12:16:00;;;;;;;10.55;1.65;;;7.20;99.90;;;;;;5010811;28;20489;-71
2022/01/20 12:18:27;;;;;;;8.95;1.30;;;6.70;99.90;;;;;;5023471;28;20050;-70
2022/01/20 12:20:53;;;;;;;9.23;1.05;;;6.30;99.90;;;;;;5012413;28;20061;-70
2022/01/20 12:23:20;;;;;;;5.95;0.82;;;6.20;99.90;;;;;;5011996;28;20414;-71
2022/01/20 12:25:46;;;;;;;5.28;1.00;;;5.80;99.90;;;;;;4996827;28;20045;-72
2022/01/20 12:28:15;;;;;;;5.90;0.80;;;5.50;99.90;;;;;;5027544;28;20525;-73
2022/01/20 12:30:47;;;;;;;4.70;0.63;;;5.80;99.90;;;;;;4996116;28;20477;-72
2022/01/20 12:33:16;;;;;;;3.67;0.60;;;6.30;99.90;;;;;;5006455;28;20457;-72
2022/01/20 12:35:49;;;;;;;10.70;1.20;;;6.60;99.90;;;;;;4993756;28;20057;-72
2022/01/20 12:38:28;;;;;;;4.60;1.13;;;6.30;99.90;;;;;;4994712;28;20053;-77
2022/01/20 12:41:01;;;;;;;5.75;0.80;;;6.40;99.90;;;;;;4994570;28;20050;-76
2022/01/20 12:43:34;;;;;;;7.18;1.20;;;6.90;99.90;;;;;;5010972;28;20045;-74
2022/01/20 12:46:00;;;;;;;7.72;1.33;;;7.50;99.90;;;;;;4994999;28;20045;-74
2022/01/20 12:48:26;;;;;;;10.57;1.80;;;7.80;99.90;;;;;;4978491;28;20068;-73
2022/01/20 12:51:02;;;;;;;12.75;1.88;;;8.30;99.90;;;;;;5009469;28;20539;-74
2022/01/20 12:53:37;;;;;;;7.18;1.73;;;8.70;99.90;;;;;;4994613;28;20126;-75
2022/01/20 12:56:05;;;;;;;17.13;2.47;;;8.60;99.90;;;;;;4995008;28;20096;-74
2022/01/20 12:58:31;;;;;;;12.63;1.90;;;8.70;99.90;;;;;;5010302;28;20046;-75
2022/01/20 13:01:03;;;;;;;12.88;1.60;;;8.90;99.90;;;;;;4994174;28;20099;-74
2022/01/20 13:03:40;;;;;;;12.90;2.00;;;9.30;99.90;;;;;;4996201;28;20128;-73
2022/01/20 13:06:11;;;;;;;14.63;2.42;;;9.40;99.90;;;;;;4993056;28;20042;-73
2022/01/20 13:08:41;;;;;;;13.30;1.67;;;9.00;99.90;;;;;;5013481;28;20184;-74
2022/01/20 13:11:12;;;;;;;12.27;1.85;;;8.40;99.90;;;;;;5009813;28;20056;-74
2022/01/20 13:13:38;;;;;;;10.07;1.77;;;7.80;99.90;;;;;;4997161;28;20615;-74
2022/01/20 13:16:15;;;;;;;15.68;1.92;;;7.40;99.90;;;;;;4994536;28;20149;-74
2022/01/20 13:18:55;;;;;;;8.98;2.00;;;7.10;99.90;;;;;;4993784;28;20052;-74
2022/01/20 13:21:32;;;;;;;13.45;2.00;;;6.80;99.90;;;;;;5007380;28;20053;-74
2022/01/20 13:23:58;;;;;;;7.95;1.70;;;6.40;99.90;;;;;;4990378;28;20050;-78
2022/01/20 13:26:26;;;;;;;10.00;1.60;;;6.00;99.90;;;;;;4992119;28;20502;-77
2022/01/20 13:29:00;;;;;;;7.47;1.85;;;5.70;99.90;;;;;;4976565;28;20112;-76
2022/01/20 13:31:25;;;;;;;11.75;1.95;;;5.60;99.90;;;;;;5001640;28;20061;-76
2022/01/20 13:33:51;;;;;;;18.05;2.60;;;6.00;99.90;;;;;;5002682;28;20049;-76
2022/01/20 13:36:20;;;;;;;18.70;2.33;;;5.50;99.90;;;;;;5010221;28;20080;-78
2022/01/20 13:38:49;;;;;;;16.40;2.40;;;5.50;99.90;;;;;;5008244;28;20060;-79
2022/01/20 13:41:20;;;;;;;12.45;1.80;;;6.00;99.90;;;;;;5009830;28;20053;-80
2022/01/20 13:46:40;;;;;;;10.68;1.77;;;7.60;99.90;;;;;;5001329;28;20454;-79
2022/01/20 13:49:12;;;;;;;9.88;1.92;;;8.00;99.90;;;;;;5010815;28;20052;-80
2022/01/20 13:51:39;;;;;;;13.48;1.83;;;8.30;99.90;;;;;;5009462;28;20038;-80
2022/01/20 13:54:05;;;;;;;8.77;1.60;;;8.70;99.90;;;;;;5009271;28;20542;-80
2022/01/20 13:56:31;;;;;;;13.90;2.33;;;9.40;99.90;;;;;;5006371;28;20097;-81
2022/01/20 13:59:15;;;;;;;14.50;2.15;;;9.30;99.90;;;;;;5009416;28;20132;-81
2022/01/20 14:01:41;;;;;;;11.57;1.85;;;8.70;99.90;;;;;;5010508;28;20077;-81
2022/01/20 14:04:06;;;;;;;9.75;1.67;;;8.40;99.90;;;;;;5015183;28;20038;-80
2022/01/20 14:06:32;;;;;;;12.85;1.60;;;7.80;99.90;;;;;;5019540;28;20394;-80
2022/01/20 14:08:58;;;;;;;12.02;1.75;;;7.50;99.90;;;;;;5012348;28;20081;-79